Aviation Digital Data Service (ADDS)

Output produced by METARs form (1101 UTC 17 June 2019)
found at http://www.aviationweather.gov/metar/data/
 
Forecast for: ETHN (NIEDERSTETTEN (G, DE)
Text: TAF ETHN 171025Z 1711/1720 07008KT 9999 NSW SCT025
Forecast period: 1100 to 2000 UTC 17 June 2019
Forecast type: FROM: standard forecast or significant change
Winds: from the ENE (70 degrees) at 9 MPH (8 knots; 4.1 m/s)
Visibility: 6 or more miles 10+ km)
Ceiling: at least 12,000 feet AGL
Clouds: scattered clouds at 2500 feet AGL
Weather: NSW  (no significant weather)